sensor_id;sensor_type;location;lat;lon;timestamp;noise_LAeq;noise_LA_min;noise_LA_max;noise_LA01;noise_LA95
67310;Laerm;65444;51.438;5.982;2023-12-04T16:53:43;47.43;40.88;74.18;;
67310;Laerm;65444;51.438;5.982;2023-12-04T16:54:47;47.43;41.94;58.58;;
67310;Laerm;65444;51.438;5.982;2023-12-04T16:55:01;50.40;42.91;58.42;;
67310;Laerm;65444;51.438;5.982;2023-12-04T16:57:24;46.10;41.47;56.94;;
67310;Laerm;65444;51.438;5.982;2023-12-04T16:58:46;45.79;40.99;69.36;;
67310;Laerm;65444;51.438;5.982;2023-12-04T16:59:41;45.06;42.25;61.32;;
67310;Laerm;65444;51.438;5.982;2023-12-04T16:59:54;44.21;41.67;53.00;;
67310;Laerm;65444;51.438;5.982;2023-12-04T17:00:27;44.40;41.43;56.01;;
67310;Laerm;65444;51.438;5.982;2023-12-04T17:00:49;44.64;41.84;56.19;;
67310;Laerm;65444;51.438;5.982;2023-12-04T17:01:35;45.54;42.61;56.95;;
67310;Laerm;65444;51.438;5.982;2023-12-04T17:01:45;46.57;43.83;59.16;;
67310;Laerm;65444;51.438;5.982;2023-12-04T17:02:22;44.87;42.10;58.25;;
67310;Laerm;65444;51.438;5.982;2023-12-04T17:02:35;48.74;43.36;67.13;;
67310;Laerm;65444;51.438;5.982;2023-12-04T17:02:51;45.34;43.33;52.48;;
67310;Laerm;65444;51.438;5.982;2023-12-04T17:03:02;49.60;45.14;59.11;;
67310;Laerm;65444;51.438;5.982;2023-12-04T17:03:12;48.34;43.04;58.46;;
67310;Laerm;65444;51.438;5.982;2023-12-04T17:03:34;47.14;42.93;66.98;;
67310;Laerm;65444;51.438;5.982;2023-12-04T17:03:45;46.97;42.15;68.10;;
67310;Laerm;65444;51.438;5.982;2023-12-04T17:04:01;43.66;41.84;48.31;;
67310;Laerm;65444;51.438;5.982;2023-12-04T17:04:21;49.00;43.49;71.40;;
67310;Laerm;65444;51.438;5.982;2023-12-04T17:04:33;46.03;42.82;55.82;;
67310;Laerm;65444;51.438;5.982;2023-12-04T17:04:43;44.73;42.24;59.52;;
67310;Laerm;65444;51.438;5.982;2023-12-04T17:04:54;45.60;42.68;62.78;;
67310;Laerm;65444;51.438;5.982;2023-12-04T17:05:05;45.86;43.17;55.89;;
67310;Laerm;65444;51.438;5.982;2023-12-04T17:05:16;46.11;42.94;57.49;;
67310;Laerm;65444;51.438;5.982;2023-12-04T17:05:27;44.10;42.39;48.96;;
67310;Laerm;65444;51.438;5.982;2023-12-04T17:05:41;48.59;43.36;59.26;;
67310;Laerm;65444;51.438;5.982;2023-12-04T17:05:52;46.68;43.10;57.51;;
67310;Laerm;65444;51.438;5.982;2023-12-04T17:06:03;46.18;43.19;49.88;;
67310;Laerm;65444;51.438;5.982;2023-12-04T17:06:14;45.86;42.67;61.14;;
67310;Laerm;65444;51.438;5.982;2023-12-04T17:06:24;43.57;41.53;50.66;;
67310;Laerm;65444;51.438;5.982;2023-12-04T17:06:46;45.17;41.27;63.18;;
67310;Laerm;65444;51.438;5.982;2023-12-04T17:07:00;45.38;41.71;63.84;;
67310;Laerm;65444;51.438;5.982;2023-12-04T17:07:14;44.48;41.33;58.21;;
67310;Laerm;65444;51.438;5.982;2023-12-04T17:07:24;49.55;42.83;61.01;;
67310;Laerm;65444;51.438;5.982;2023-12-04T17:07:35;49.31;42.39;61.40;;
67310;Laerm;65444;51.438;5.982;2023-12-04T17:08:16;45.63;42.57;53.06;;
67310;Laerm;65444;51.438;5.982;2023-12-04T17:08:27;45.32;42.37;64.69;;
67310;Laerm;65444;51.438;5.982;2023-12-04T17:08:38;44.76;42.67;51.93;;
67310;Laerm;65444;51.438;5.982;2023-12-04T17:08:49;47.23;43.49;66.68;;
67310;Laerm;65444;51.438;5.982;2023-12-04T17:09:14;48.34;44.12;60.89;;
67310;Laerm;65444;51.438;5.982;2023-12-04T17:09:25;49.28;42.60;69.36;;
67310;Laerm;65444;51.438;5.982;2023-12-04T17:09:38;54.54;44.69;78.10;;
67310;Laerm;65444;51.438;5.982;2023-12-04T17:09:51;50.95;44.99;62.08;;
67310;Laerm;65444;51.438;5.982;2023-12-04T17:11:04;47.69;43.62;64.95;;
67310;Laerm;65444;51.438;5.982;2023-12-04T17:11:19;47.07;43.41;60.96;;
67310;Laerm;65444;51.438;5.982;2023-12-04T17:11:30;47.41;43.78;66.53;;
67310;Laerm;65444;51.438;5.982;2023-12-04T17:11:49;46.39;43.13;64.78;;
67310;Laerm;65444;51.438;5.982;2023-12-04T17:12:03;45.36;42.57;57.16;;
67310;Laerm;65444;51.438;5.982;2023-12-04T17:12:14;47.32;44.92;59.11;;
67310;Laerm;65444;51.438;5.982;2023-12-04T17:12:27;46.06;43.04;50.05;;
67310;Laerm;65444;51.438;5.982;2023-12-04T17:12:50;44.05;42.14;53.35;;
67310;Laerm;65444;51.438;5.982;2023-12-04T17:13:46;44.85;41.60;66.54;;
67310;Laerm;65444;51.438;5.982;2023-12-04T17:13:59;46.30;42.36;68.00;;
67310;Laerm;65444;51.438;5.982;2023-12-04T17:14:10;44.67;42.01;55.01;;
67310;Laerm;65444;51.438;5.982;2023-12-04T17:14:20;45.71;43.47;48.30;;
67310;Laerm;65444;51.438;5.982;2023-12-04T17:17:49;47.71;43.26;69.92;;
67310;Laerm;65444;51.438;5.982;2023-12-04T17:39:56;43.51;39.90;58.16;;
67310;Laerm;65444;51.438;5.982;2023-12-04T17:40:07;43.53;40.98;60.91;;
67310;Laerm;65444;51.438;5.982;2023-12-04T17:40:18;42.77;40.47;58.91;;
67310;Laerm;65444;51.438;5.982;2023-12-04T17:40:45;44.88;40.58;49.98;;
67310;Laerm;65444;51.438;5.982;2023-12-04T17:40:56;49.72;41.03;76.77;;
67310;Laerm;65444;51.438;5.982;2023-12-04T17:42:04;43.64;39.63;52.61;;
67310;Laerm;65444;51.438;5.982;2023-12-04T17:42:14;43.61;39.78;50.00;;
67310;Laerm;65444;51.438;5.982;2023-12-04T17:43:23;42.56;38.30;54.76;;
67310;Laerm;65444;51.438;5.982;2023-12-04T17:43:36;42.99;39.37;48.87;;
67310;Laerm;65444;51.438;5.982;2023-12-04T17:43:47;40.90;37.31;45.62;;
67310;Laerm;65444;51.438;5.982;2023-12-04T17:44:15;50.90;39.70;65.28;;
67310;Laerm;65444;51.438;5.982;2023-12-04T17:44:26;42.35;37.64;63.48;;
67310;Laerm;65444;51.438;5.982;2023-12-04T17:44:38;40.90;37.34;45.13;;
67310;Laerm;65444;51.438;5.982;2023-12-04T17:44:49;43.63;38.85;55.07;;
67310;Laerm;65444;51.438;5.982;2023-12-04T17:45:09;41.30;38.75;45.61;;
67310;Laerm;65444;51.438;5.982;2023-12-04T17:45:37;39.84;36.69;47.25;;
67310;Laerm;65444;51.438;5.982;2023-12-04T17:45:48;38.91;36.55;48.51;;
67310;Laerm;65444;51.438;5.982;2023-12-04T18:04:14;42.04;38.61;60.06;;
67310;Laerm;65444;51.438;5.982;2023-12-04T18:04:24;43.39;39.97;54.10;;
67310;Laerm;65444;51.438;5.982;2023-12-04T18:04:38;44.27;41.45;48.25;;
67310;Laerm;65444;51.438;5.982;2023-12-04T18:05:27;43.21;39.05;53.08;;
67310;Laerm;65444;51.438;5.982;2023-12-04T18:05:41;45.29;39.75;58.84;;
67310;Laerm;65444;51.438;5.982;2023-12-04T18:05:53;46.12;42.09;58.95;;
67310;Laerm;65444;51.438;5.982;2023-12-04T18:06:09;45.22;42.34;49.53;;
67310;Laerm;65444;51.438;5.982;2023-12-04T18:07:15;46.37;42.19;65.69;;
67310;Laerm;65444;51.438;5.982;2023-12-04T18:07:25;45.54;42.15;64.69;;
67310;Laerm;65444;51.438;5.982;2023-12-04T18:07:38;44.85;42.18;55.19;;
67310;Laerm;65444;51.438;5.982;2023-12-04T18:07:49;46.38;44.14;58.27;;
67310;Laerm;65444;51.438;5.982;2023-12-04T18:07:59;47.87;45.05;60.99;;
67310;Laerm;65444;51.438;5.982;2023-12-04T18:08:21;49.65;46.79;64.39;;
67310;Laerm;65444;51.438;5.982;2023-12-04T18:08:32;55.29;48.50;80.89;;
67310;Laerm;65444;51.438;5.982;2023-12-04T18:08:44;51.98;48.90;68.50;;
67310;Laerm;65444;51.438;5.982;2023-12-04T18:08:54;50.08;47.48;57.26;;
67310;Laerm;65444;51.438;5.982;2023-12-04T18:09:05;49.78;44.48;70.87;;
67310;Laerm;65444;51.438;5.982;2023-12-04T18:09:23;45.40;42.79;49.02;;
67310;Laerm;65444;51.438;5.982;2023-12-04T18:09:34;45.49;42.91;64.17;;
67310;Laerm;65444;51.438;5.982;2023-12-04T18:09:45;53.53;42.70;77.70;;
67310;Laerm;65444;51.438;5.982;2023-12-04T18:09:55;45.46;42.50;52.15;;
67310;Laerm;65444;51.438;5.982;2023-12-04T18:10:06;44.86;42.54;54.52;;
67310;Laerm;65444;51.438;5.982;2023-12-04T18:10:23;44.33;41.83;48.44;;
67310;Laerm;65444;51.438;5.982;2023-12-04T18:10:37;45.77;43.01;49.28;;
67310;Laerm;65444;51.438;5.982;2023-12-04T18:10:51;45.07;41.03;51.39;;
67310;Laerm;65444;51.438;5.982;2023-12-04T18:11:08;45.60;41.64;51.18;;
67310;Laerm;65444;51.438;5.982;2023-12-04T18:11:46;48.06;39.18;59.66;;
67310;Laerm;65444;51.438;5.982;2023-12-04T18:11:57;48.82;41.94;57.67;;
67310;Laerm;65444;51.438;5.982;2023-12-04T18:12:08;44.39;40.87;48.51;;
67310;Laerm;65444;51.438;5.982;2023-12-04T18:12:18;42.66;40.34;48.98;;
67310;Laerm;65444;51.438;5.982;2023-12-04T18:13:01;44.36;39.71;67.25;;
67310;Laerm;65444;51.438;5.982;2023-12-04T18:13:12;44.83;39.71;50.39;;
67310;Laerm;65444;51.438;5.982;2023-12-04T18:13:26;44.02;38.90;53.67;;
67310;Laerm;65444;51.438;5.982;2023-12-04T18:13:37;42.66;38.06;61.06;;
67310;Laerm;65444;51.438;5.982;2023-12-04T18:13:48;43.09;38.36;57.39;;
67310;Laerm;65444;51.438;5.982;2023-12-04T18:13:59;43.90;39.97;49.32;;
67310;Laerm;65444;51.438;5.982;2023-12-04T18:14:10;40.73;37.64;44.86;;
67310;Laerm;65444;51.438;5.982;2023-12-04T18:14:25;40.20;37.20;44.76;;
67310;Laerm;65444;51.438;5.982;2023-12-04T18:14:41;46.77;39.57;57.08;;
67310;Laerm;65444;51.438;5.982;2023-12-04T18:14:52;49.14;40.25;61.65;;
67310;Laerm;65444;51.438;5.982;2023-12-04T18:15:03;46.38;39.89;56.04;;
67310;Laerm;65444;51.438;5.982;2023-12-04T18:15:14;45.93;40.99;53.75;;
67310;Laerm;65444;51.438;5.982;2023-12-04T18:15:25;45.86;41.98;53.04;;
67310;Laerm;65444;51.438;5.982;2023-12-04T18:15:36;45.96;40.28;55.33;;
67310;Laerm;65444;51.438;5.982;2023-12-04T18:15:46;42.83;40.41;48.67;;
67310;Laerm;65444;51.438;5.982;2023-12-04T18:15:57;42.65;37.68;57.62;;
67310;Laerm;65444;51.438;5.982;2023-12-04T18:16:08;39.84;37.97;45.49;;
67310;Laerm;65444;51.438;5.982;2023-12-04T18:16:18;40.36;37.59;45.72;;
67310;Laerm;65444;51.438;5.982;2023-12-04T18:16:30;42.10;38.29;59.98;;
67310;Laerm;65444;51.438;5.982;2023-12-04T18:16:41;44.55;40.43;51.07;;
67310;Laerm;65444;51.438;5.982;2023-12-04T18:16:56;46.66;40.97;55.32;;
67310;Laerm;65444;51.438;5.982;2023-12-04T18:17:06;48.06;41.66;57.42;;
67310;Laerm;65444;51.438;5.982;2023-12-04T18:17:17;50.29;40.69;73.54;;
67310;Laerm;65444;51.438;5.982;2023-12-04T18:17:30;45.78;41.74;52.13;;
67310;Laerm;65444;51.438;5.982;2023-12-04T18:17:40;43.37;40.61;53.82;;
67310;Laerm;65444;51.438;5.982;2023-12-04T18:18:05;43.53;40.57;61.68;;
67310;Laerm;65444;51.438;5.982;2023-12-04T18:18:16;45.83;41.53;56.11;;
67310;Laerm;65444;51.438;5.982;2023-12-04T18:18:34;44.90;42.43;56.63;;
67310;Laerm;65444;51.438;5.982;2023-12-04T18:21:26;45.47;40.90;69.41;;
67310;Laerm;65444;51.438;5.982;2023-12-04T18:21:37;47.60;40.60;72.96;;
67310;Laerm;65444;51.438;5.982;2023-12-04T18:21:48;44.10;41.13;49.36;;
67310;Laerm;65444;51.438;5.982;2023-12-04T18:32:12;40.30;37.31;50.93;;
67310;Laerm;65444;51.438;5.982;2023-12-04T21:49:45;48.27;43.94;74.73;;
67310;Laerm;65444;51.438;5.982;2023-12-04T21:50:01;47.87;45.26;57.85;;
67310;Laerm;65444;51.438;5.982;2023-12-04T21:54:32;43.91;38.87;63.45;;
67310;Laerm;65444;51.438;5.982;2023-12-04T21:54:48;45.53;40.81;64.02;;
67310;Laerm;65444;51.438;5.982;2023-12-04T21:55:00;45.21;42.54;53.37;;
67310;Laerm;65444;51.438;5.982;2023-12-04T21:55:12;45.41;41.74;53.25;;
67310;Laerm;65444;51.438;5.982;2023-12-04T22:50:11;38.22;32.43;53.69;;
67310;Laerm;65444;51.438;5.982;2023-12-04T22:50:46;39.30;33.85;49.93;;
67310;Laerm;65444;51.438;5.982;2023-12-04T22:51:00;46.72;44.00;49.54;;
67310;Laerm;65444;51.438;5.982;2023-12-04T22:51:20;44.46;39.85;48.25;;
67310;Laerm;65444;51.438;5.982;2023-12-04T22:51:49;41.65;38.24;53.25;;
67310;Laerm;65444;51.438;5.982;2023-12-04T22:52:00;38.40;34.73;54.14;;
67310;Laerm;65444;51.438;5.982;2023-12-04T22:52:13;39.10;37.04;43.61;;
67310;Laerm;65444;51.438;5.982;2023-12-04T22:52:26;37.93;35.89;41.78;;
67310;Laerm;65444;51.438;5.982;2023-12-04T22:52:50;37.97;35.89;42.96;;
67310;Laerm;65444;51.438;5.982;2023-12-04T22:53:03;37.88;35.51;45.47;;
67310;Laerm;65444;51.438;5.982;2023-12-04T22:53:16;38.07;35.67;49.27;;
67310;Laerm;65444;51.438;5.982;2023-12-04T22:53:29;37.30;34.28;44.05;;
67310;Laerm;65444;51.438;5.982;2023-12-04T22:53:45;38.02;34.61;47.75;;
67310;Laerm;65444;51.438;5.982;2023-12-04T22:54:07;36.99;34.47;41.41;;
67310;Laerm;65444;51.438;5.982;2023-12-04T22:54:23;37.59;34.03;42.00;;
67310;Laerm;65444;51.438;5.982;2023-12-04T22:58:07;36.90;32.69;50.09;;
67310;Laerm;65444;51.438;5.982;2023-12-04T23:42:05;34.40;31.27;44.22;;
67310;Laerm;65444;51.438;5.982;2023-12-04T23:42:18;34.87;32.53;42.22;;
67310;Laerm;65444;51.438;5.982;2023-12-04T23:42:30;34.51;32.26;39.88;;
67310;Laerm;65444;51.438;5.982;2023-12-04T23:42:44;34.67;31.96;45.04;;
67310;Laerm;65444;51.438;5.982;2023-12-04T23:43:05;34.21;31.63;42.07;;
67310;Laerm;65444;51.438;5.982;2023-12-04T23:45:22;35.06;31.31;44.85;;
67310;Laerm;65444;51.438;5.982;2023-12-04T23:45:34;34.14;31.50;46.88;;
